createdAt,value
2019-02-05T00:01:36.809Z,13.37
2019-02-05T00:04:06.785Z,14.23
2019-02-05T00:06:36.263Z,14.90
2019-02-05T00:09:09.550Z,14.90
2019-02-05T00:11:38.894Z,15.27
2019-02-05T00:14:08.349Z,14.50
2019-02-05T00:16:37.791Z,14.17
2019-02-05T00:19:07.146Z,13.87
2019-02-05T00:21:36.585Z,12.70
2019-02-05T00:24:06.138Z,14.10
2019-02-05T00:26:35.505Z,13.40
2019-02-05T00:29:04.960Z,12.73
2019-02-05T00:31:34.692Z,13.67
2019-02-05T00:34:04.359Z,13.17
2019-02-05T00:36:33.690Z,13.47
2019-02-05T00:39:04.291Z,13.93
2019-02-05T00:41:33.648Z,13.37
2019-02-05T00:44:02.995Z,13.07
2019-02-05T00:46:32.632Z,13.97
2019-02-05T00:49:01.962Z,13.60
2019-02-05T00:51:31.291Z,13.20
2019-02-05T00:54:00.685Z,13.20
2019-02-05T00:56:30.101Z,13.23
2019-02-05T00:58:59.457Z,13.57
2019-02-05T01:01:29.098Z,14.07
2019-02-05T01:03:58.453Z,13.77
2019-02-05T01:06:27.794Z,14.50
2019-02-05T01:08:57.147Z,12.57
2019-02-05T01:11:26.476Z,13.93
2019-02-05T01:13:55.892Z,13.67
2019-02-05T01:16:25.217Z,13.37
2019-02-05T01:18:54.553Z,13.90
2019-02-05T01:21:23.870Z,14.40
2019-02-05T01:23:53.231Z,13.47
2019-02-05T01:26:29.500Z,13.83
2019-02-05T01:28:53.690Z,14.40
2019-02-05T01:31:23.051Z,14.87
2019-02-05T01:33:52.375Z,14.20
2019-02-05T01:36:21.712Z,15.30
2019-02-05T01:38:51.035Z,14.07
2019-02-05T01:41:20.451Z,13.83
2019-02-05T01:43:50.365Z,16.17
2019-02-05T01:46:19.740Z,14.23
2019-02-05T01:48:49.113Z,14.43
2019-02-05T01:51:18.482Z,14.57
2019-02-05T01:53:47.820Z,15.07
2019-02-05T01:56:17.179Z,14.53
2019-02-05T01:58:46.834Z,15.10
2019-02-05T02:01:16.203Z,14.63
2019-02-05T02:03:45.693Z,13.83
2019-02-05T02:06:15.038Z,13.73
2019-02-05T02:08:44.372Z,14.80
2019-02-05T02:11:13.689Z,14.90
2019-02-05T02:13:43.310Z,14.07
2019-02-05T02:16:12.748Z,15.07
2019-02-05T02:18:42.094Z,13.87
2019-02-05T02:21:11.449Z,14.63
2019-02-05T02:23:40.802Z,13.47
2019-02-05T02:26:10.155Z,14.47
2019-02-05T02:28:39.901Z,13.53
2019-02-05T02:31:09.226Z,14.13
2019-02-05T02:33:38.673Z,13.53
2019-02-05T02:36:08.031Z,14.10
2019-02-05T02:38:37.363Z,13.80
2019-02-05T02:41:06.738Z,13.80
2019-02-05T02:43:36.448Z,14.87
2019-02-05T02:46:06.090Z,14.77
2019-02-05T02:48:35.435Z,14.53
2019-02-05T02:51:04.779Z,15.83
2019-02-05T02:53:34.090Z,16.00
2019-02-05T02:56:03.439Z,16.87
2019-02-05T02:58:33.169Z,15.67
2019-02-05T03:01:02.524Z,16.30
2019-02-05T03:03:31.879Z,15.20
2019-02-05T03:06:01.239Z,16.57
2019-02-05T03:08:30.588Z,15.77
2019-02-05T03:10:59.928Z,14.80
2019-02-05T03:13:29.282Z,15.03
2019-02-05T03:15:58.625Z,15.00
2019-02-05T03:18:27.951Z,15.93
2019-02-05T03:20:57.314Z,15.63
2019-02-05T03:23:26.692Z,15.73
2019-02-05T03:25:56.033Z,16.10
2019-02-05T03:28:25.368Z,17.93
2019-02-05T03:30:54.721Z,16.77
2019-02-05T03:33:24.648Z,17.43
2019-02-05T03:35:53.952Z,15.60
2019-02-05T03:38:23.285Z,15.70
2019-02-05T03:41:17.533Z,15.30
2019-02-05T03:43:47.251Z,17.03
2019-02-05T03:46:17.915Z,17.30
2019-02-05T03:48:49.055Z,16.90
2019-02-05T03:51:56.969Z,17.47
2019-02-05T03:55:22.049Z,17.77
2019-02-05T03:58:42.128Z,16.07
2019-02-05T04:01:48.132Z,18.03
2019-02-05T04:05:08.988Z,17.23
2019-02-05T04:08:18.411Z,17.90
2019-02-05T04:11:36.066Z,17.63
2019-02-05T04:14:46.385Z,19.93
2019-02-05T04:17:37.049Z,18.23
2019-02-05T04:20:51.952Z,20.27
2019-02-05T04:24:06.996Z,20.23
2019-02-05T04:27:22.067Z,18.57
2019-02-05T04:30:32.367Z,16.50
2019-02-05T04:33:45.546Z,16.50
2019-02-05T04:37:08.899Z,17.57
2019-02-05T04:40:06.772Z,17.27
2019-02-05T04:43:05.661Z,17.73
2019-02-05T04:46:03.996Z,18.67
2019-02-05T04:49:20.213Z,18.67
2019-02-05T04:52:22.537Z,18.87
2019-02-05T04:55:17.799Z,18.80
2019-02-05T04:58:07.860Z,19.50
2019-02-05T05:00:56.729Z,19.97
2019-02-05T05:03:59.196Z,17.67
2019-02-05T05:07:19.368Z,17.90
2019-02-05T05:09:50.671Z,16.97
2019-02-05T05:12:20.122Z,17.33
2019-02-05T05:14:49.632Z,16.43
2019-02-05T05:17:19.081Z,16.57
2019-02-05T05:19:48.544Z,16.67
2019-02-05T05:22:18.035Z,16.70
2019-02-05T05:24:47.866Z,16.47
2019-02-05T05:27:19.303Z,17.43
2019-02-05T05:29:48.899Z,16.30
2019-02-05T05:32:18.869Z,16.13
2019-02-05T05:34:48.288Z,16.63
2019-02-05T05:37:15.883Z,18.53
2019-02-05T05:39:45.281Z,16.63
2019-02-05T05:42:14.711Z,18.20
2019-02-05T05:44:44.450Z,17.63
2019-02-05T05:47:13.798Z,17.63
2019-02-05T05:49:43.259Z,16.40
2019-02-05T05:52:12.594Z,18.27
2019-02-05T05:54:41.985Z,17.00
2019-02-05T05:57:11.307Z,18.70
2019-02-05T05:59:40.662Z,18.57
2019-02-05T06:02:10.032Z,17.37
2019-02-05T06:04:39.409Z,18.37
2019-02-05T06:07:09.149Z,17.97
2019-02-05T06:09:38.934Z,17.73
2019-02-05T06:12:08.302Z,18.97
2019-02-05T06:14:37.677Z,18.67
2019-02-05T06:17:07.276Z,18.93
2019-02-05T06:19:36.643Z,18.70
2019-02-05T06:22:05.946Z,19.87
2019-02-05T06:24:35.280Z,18.30
2019-02-05T06:27:04.742Z,19.20
2019-02-05T06:29:34.123Z,17.10
2019-02-05T06:32:03.840Z,18.20
2019-02-05T06:34:33.208Z,18.00
2019-02-05T06:37:02.617Z,17.10
2019-02-05T06:39:32.143Z,16.90
2019-02-05T06:42:01.560Z,17.67
2019-02-05T06:44:30.925Z,18.30
2019-02-05T06:47:00.476Z,18.23
2019-02-05T06:49:29.833Z,17.97
2019-02-05T06:51:59.203Z,17.57
2019-02-05T06:54:28.792Z,18.20
2019-02-05T06:56:58.173Z,18.10
2019-02-05T06:59:27.902Z,18.17
2019-02-05T07:01:57.245Z,20.13
2019-02-05T07:04:26.876Z,20.63
2019-02-05T07:06:56.273Z,21.53
2019-02-05T07:09:25.668Z,20.73
2019-02-05T07:11:55.034Z,22.97
2019-02-05T07:14:24.385Z,22.73
2019-02-05T07:16:53.723Z,20.60
2019-02-05T07:19:23.114Z,19.93
2019-02-05T07:21:52.908Z,21.10
2019-02-05T07:24:22.536Z,22.83
2019-02-05T07:26:51.890Z,24.90
2019-02-05T07:29:21.317Z,23.53
2019-02-05T07:31:50.706Z,23.17
2019-02-05T07:34:21.394Z,24.83
2019-02-05T07:36:51.305Z,26.77
2019-02-05T07:39:20.671Z,29.10
2019-02-05T07:41:50.041Z,30.03
2019-02-05T07:44:19.417Z,28.70
2019-02-05T07:46:48.833Z,26.47
2019-02-05T07:49:18.408Z,28.00
2019-02-05T07:51:47.835Z,26.87
2019-02-05T07:54:17.453Z,26.40
2019-02-05T07:56:46.980Z,23.20
2019-02-05T07:59:16.322Z,23.07
2019-02-05T08:01:45.820Z,22.77
2019-02-05T08:04:15.185Z,21.70
2019-02-05T08:06:45.082Z,21.40
2019-02-05T08:09:14.445Z,22.37
2019-02-05T08:11:43.911Z,21.53
2019-02-05T08:14:13.786Z,22.30
2019-02-05T08:16:43.138Z,21.03
2019-02-05T08:19:12.519Z,24.10
2019-02-05T08:21:41.884Z,25.60
2019-02-05T08:24:11.225Z,23.80
2019-02-05T08:26:40.614Z,26.37
2019-02-05T08:29:21.153Z,26.23
2019-02-05T08:31:41.486Z,27.27
2019-02-05T08:34:11.154Z,30.30
2019-02-05T08:36:40.626Z,29.60
2019-02-05T08:39:10.974Z,29.30
2019-02-05T08:41:40.386Z,28.37
2019-02-05T08:44:10.011Z,27.93
2019-02-05T08:46:39.577Z,28.23
2019-02-05T08:49:08.880Z,26.37
2019-02-05T08:51:38.391Z,26.37
2019-02-05T08:54:07.735Z,27.23
2019-02-05T08:56:37.130Z,28.63
2019-02-05T08:59:06.855Z,28.47
2019-02-05T09:01:36.490Z,28.37
2019-02-05T09:04:05.955Z,27.77
2019-02-05T09:06:35.557Z,28.20
2019-02-05T09:09:08.288Z,30.97
2019-02-05T09:11:37.687Z,27.73
2019-02-05T09:14:11.183Z,28.77
2019-02-05T09:16:38.105Z,28.50
2019-02-05T09:19:07.561Z,28.07
2019-02-05T09:21:36.918Z,28.30
2019-02-05T09:24:06.401Z,29.17
2019-02-05T09:26:35.777Z,26.87
2019-02-05T09:29:05.111Z,27.70
2019-02-05T09:31:34.518Z,29.00
2019-02-05T09:34:04.091Z,29.47
2019-02-05T09:36:33.419Z,29.80
2019-02-05T09:39:03.101Z,29.27
2019-02-05T09:41:32.539Z,31.47
2019-02-05T09:44:02.124Z,32.47
2019-02-05T09:46:31.458Z,32.07
2019-02-05T09:49:00.983Z,34.87
2019-02-05T09:51:30.472Z,31.87
2019-02-05T09:53:59.796Z,33.17
2019-02-05T09:56:29.133Z,33.83
2019-02-05T09:58:58.551Z,35.57
2019-02-05T10:01:27.897Z,38.03
2019-02-05T10:03:57.248Z,36.60
2019-02-05T10:06:26.947Z,39.40
2019-02-05T10:08:56.434Z,43.53
2019-02-05T10:11:25.774Z,44.97
2019-02-05T10:13:55.227Z,45.60
2019-02-05T10:16:24.700Z,44.80
2019-02-05T10:18:54.142Z,44.43
2019-02-05T10:21:23.583Z,40.33
2019-02-05T10:23:53.322Z,41.33
2019-02-05T10:26:23.149Z,38.17
2019-02-05T10:28:52.603Z,41.13
2019-02-05T10:31:21.994Z,41.00
2019-02-05T10:33:55.399Z,41.33
2019-02-05T10:36:22.887Z,39.87
2019-02-05T10:38:52.566Z,44.03
2019-02-05T10:41:22.049Z,41.67
2019-02-05T10:43:51.408Z,40.20
2019-02-05T10:46:20.812Z,37.93
2019-02-05T10:48:50.219Z,39.30
2019-02-05T10:51:19.684Z,35.07
2019-02-05T10:53:49.422Z,36.50
2019-02-05T10:56:18.776Z,34.97
2019-02-05T10:58:50.669Z,34.93
2019-02-05T11:01:20.061Z,34.00
2019-02-05T11:03:50.912Z,36.00
2019-02-05T11:06:20.700Z,32.93
2019-02-05T11:08:50.398Z,33.50
2019-02-05T11:11:19.880Z,32.83
2019-02-05T11:13:49.284Z,32.43
2019-02-05T11:16:28.113Z,29.80
2019-02-05T11:19:10.984Z,29.60
2019-02-05T11:21:41.644Z,27.97
2019-02-05T11:24:18.622Z,28.17
2019-02-05T11:26:52.763Z,28.73
2019-02-05T11:29:26.924Z,23.10
2019-02-05T11:31:58.107Z,22.87
2019-02-05T11:34:27.565Z,24.03
2019-02-05T11:36:56.981Z,23.00
2019-02-05T11:39:26.455Z,23.67
2019-02-05T11:41:56.229Z,20.80
2019-02-05T11:44:27.136Z,21.10
2019-02-05T11:46:56.621Z,20.83
2019-02-05T11:49:27.425Z,23.70
2019-02-05T11:51:56.787Z,22.70
2019-02-05T11:54:26.219Z,18.37
2019-02-05T11:56:55.545Z,22.83
2019-02-05T11:59:24.912Z,22.27
2019-02-05T12:01:54.334Z,21.47
2019-02-05T12:04:23.703Z,21.43
2019-02-05T12:06:53.050Z,18.93
2019-02-05T12:09:25.109Z,19.70
2019-02-05T12:11:54.510Z,21.60
2019-02-05T12:14:23.905Z,19.87
2019-02-05T12:16:53.472Z,19.50
2019-02-05T12:19:22.867Z,21.97
2019-02-05T12:21:52.720Z,20.40
2019-02-05T12:24:22.078Z,19.77
2019-02-05T12:26:51.389Z,19.23
2019-02-05T12:29:20.733Z,19.00
2019-02-05T12:31:50.223Z,18.30
2019-02-05T12:34:19.613Z,18.27
2019-02-05T12:36:49.420Z,17.97
2019-02-05T12:39:21.657Z,18.30
2019-02-05T12:41:51.020Z,20.20
2019-02-05T12:44:20.389Z,20.70
2019-02-05T12:46:50.001Z,19.93
2019-02-05T12:49:19.383Z,18.50
2019-02-05T12:51:48.911Z,23.10
2019-02-05T12:54:18.229Z,20.80
2019-02-05T12:56:47.572Z,18.60
2019-02-05T12:59:16.926Z,15.47
2019-02-05T13:01:46.275Z,14.23
2019-02-05T13:04:15.725Z,15.53
2019-02-05T13:06:45.168Z,15.30
2019-02-05T13:09:14.739Z,12.67
2019-02-05T13:11:45.174Z,13.77
2019-02-05T13:14:14.691Z,12.73
2019-02-05T13:16:44.047Z,12.00
2019-02-05T13:19:13.404Z,13.23
2019-02-05T13:21:42.739Z,12.33
2019-02-05T13:24:12.301Z,11.07
2019-02-05T13:26:42.617Z,12.07
2019-02-05T13:30:42.503Z,11.03
2019-02-05T13:33:13.313Z,10.80
2019-02-05T13:35:42.933Z,11.03
2019-02-05T13:38:12.304Z,10.60
2019-02-05T13:40:41.703Z,10.93
2019-02-05T13:43:11.258Z,11.13
2019-02-05T13:45:42.047Z,11.17
2019-02-05T13:48:11.712Z,11.27
2019-02-05T13:50:41.220Z,10.63
2019-02-05T13:53:10.835Z,12.40
2019-02-05T13:55:42.619Z,10.37
2019-02-05T13:58:12.755Z,11.57
2019-02-05T14:00:53.287Z,11.30
2019-02-05T14:03:22.983Z,12.27
2019-02-05T14:05:52.400Z,10.67
2019-02-05T14:08:21.804Z,10.67
2019-02-05T14:10:53.789Z,10.90
2019-02-05T14:13:23.198Z,11.97
2019-02-05T14:15:54.052Z,10.87
2019-02-05T14:18:23.431Z,12.17
2019-02-05T14:20:52.961Z,13.20
2019-02-05T14:23:22.384Z,11.43
2019-02-05T14:25:51.808Z,12.27
2019-02-05T14:28:21.322Z,15.13
2019-02-05T14:30:55.689Z,13.30
2019-02-05T14:33:26.634Z,13.67
2019-02-05T14:35:56.110Z,12.83
2019-02-05T14:38:26.112Z,13.33
2019-02-05T14:40:55.629Z,13.67
2019-02-05T14:43:25.667Z,13.37
2019-02-05T14:45:55.142Z,12.77
2019-02-05T14:48:24.552Z,13.80
2019-02-05T14:50:54.040Z,13.70
2019-02-05T14:53:23.423Z,13.73
2019-02-05T14:55:52.783Z,13.70
2019-02-05T14:58:22.704Z,14.00
2019-02-05T15:00:52.095Z,15.33
2019-02-05T15:03:21.756Z,15.83
2019-02-05T15:05:51.123Z,13.93
2019-02-05T15:08:20.900Z,13.83
2019-02-05T15:10:50.665Z,14.80
2019-02-05T15:13:20.030Z,15.17
2019-02-05T15:15:52.586Z,16.90
2019-02-05T15:18:25.018Z,16.07
2019-02-05T15:21:00.682Z,15.23
2019-02-05T15:23:30.024Z,15.30
2019-02-05T15:25:59.402Z,14.93
2019-02-05T15:28:28.782Z,14.67
2019-02-05T15:30:58.111Z,14.13
2019-02-05T15:33:36.499Z,15.03
2019-02-05T15:36:22.073Z,13.90
2019-02-05T15:38:51.545Z,14.30
2019-02-05T15:41:20.935Z,15.83
2019-02-05T15:43:50.265Z,14.97
2019-02-05T15:46:19.901Z,15.20
2019-02-05T15:48:50.904Z,13.73
2019-02-05T15:51:22.721Z,14.53
2019-02-05T15:53:52.141Z,14.50
2019-02-05T15:56:21.504Z,13.53
2019-02-05T15:58:50.847Z,13.43
2019-02-05T16:01:20.299Z,15.60
2019-02-05T16:03:49.710Z,13.83
2019-02-05T16:06:19.086Z,14.97
2019-02-05T16:08:48.524Z,15.00
2019-02-05T16:11:17.957Z,13.40
2019-02-05T16:13:47.364Z,11.97
2019-02-05T16:16:16.797Z,12.37
2019-02-05T16:18:46.448Z,11.13
2019-02-05T16:21:15.808Z,11.80
2019-02-05T16:23:45.166Z,14.60
2019-02-05T16:26:14.579Z,12.33
2019-02-05T16:28:43.923Z,12.37
2019-02-05T16:31:13.322Z,15.20
2019-02-05T16:33:43.061Z,13.63
2019-02-05T16:36:12.477Z,11.60
2019-02-05T16:38:41.895Z,11.40
2019-02-05T16:41:11.251Z,13.50
2019-02-05T16:43:40.590Z,12.27
2019-02-05T16:46:09.962Z,14.50
2019-02-05T16:48:39.590Z,12.00
2019-02-05T16:51:09.030Z,11.20
2019-02-05T16:53:38.372Z,11.03
2019-02-05T16:56:07.697Z,10.10
2019-02-05T16:58:37.111Z,13.67
2019-02-05T17:01:06.566Z,13.27
2019-02-05T17:03:36.381Z,11.97
2019-02-05T17:06:06.063Z,12.10
2019-02-05T17:08:35.556Z,12.07
2019-02-05T17:11:04.908Z,13.03
2019-02-05T17:13:34.288Z,12.23
2019-02-05T17:16:03.619Z,13.37
2019-02-05T17:18:33.370Z,13.93
2019-02-05T17:21:04.602Z,16.70
2019-02-05T17:23:33.952Z,15.00
2019-02-05T17:26:03.322Z,14.80
2019-02-05T17:28:32.800Z,15.03
2019-02-05T17:31:02.165Z,14.53
2019-02-05T17:33:31.655Z,15.43
2019-02-05T17:36:01.025Z,15.60
2019-02-05T17:38:30.371Z,15.03
2019-02-05T17:40:59.722Z,17.37
2019-02-05T17:43:29.101Z,24.53
2019-02-05T17:45:59.552Z,18.00
2019-02-05T17:48:28.999Z,20.73
2019-02-05T17:50:58.314Z,19.47
2019-02-05T17:53:27.638Z,22.10
2019-02-05T17:55:56.991Z,22.20
2019-02-05T17:58:26.451Z,25.47
2019-02-05T18:01:00.341Z,25.00
2019-02-05T18:03:29.837Z,23.40
2019-02-05T18:05:59.239Z,23.37
2019-02-05T18:08:28.778Z,24.40
2019-02-05T18:11:00.273Z,22.50
2019-02-05T18:13:38.792Z,21.80
2019-02-05T18:16:12.538Z,21.37
2019-02-05T18:18:41.930Z,19.93
2019-02-05T18:21:12.867Z,18.00
2019-02-05T18:23:42.214Z,15.07
2019-02-05T18:26:30.721Z,16.07
2019-02-05T18:29:00.414Z,12.93
2019-02-05T18:31:29.751Z,12.00
2019-02-05T18:33:59.106Z,13.73
2019-02-05T18:36:28.540Z,14.20
2019-02-05T18:38:58.288Z,13.07
2019-02-05T18:41:27.685Z,12.80
2019-02-05T18:43:57.174Z,13.30
2019-02-05T18:46:26.623Z,11.67
2019-02-05T18:49:04.587Z,11.77
2019-02-05T18:51:43.103Z,14.93
2019-02-05T18:54:13.922Z,11.53
2019-02-05T18:56:43.371Z,11.60
2019-02-05T18:59:12.864Z,11.47
2019-02-05T19:01:42.558Z,12.47
2019-02-05T19:04:12.174Z,14.73
2019-02-05T19:06:41.552Z,11.17
2019-02-05T19:09:14.154Z,13.13
2019-02-05T19:11:43.511Z,12.93
2019-02-05T19:14:12.885Z,12.63
2019-02-05T19:16:42.229Z,12.23
2019-02-05T19:19:15.234Z,14.87
2019-02-05T19:21:43.008Z,12.73
2019-02-05T19:24:31.618Z,10.63
2019-02-05T19:27:01.138Z,10.77
2019-02-05T19:29:30.802Z,10.83
2019-02-05T19:32:00.346Z,12.37
2019-02-05T19:34:30.154Z,10.53
2019-02-05T19:36:59.539Z,9.10
2019-02-05T19:39:28.970Z,9.30
2019-02-05T19:41:58.358Z,8.90
2019-02-05T19:44:27.992Z,8.57
2019-02-05T19:47:14.496Z,8.70
2019-02-05T19:49:47.366Z,9.83
2019-02-05T19:52:16.716Z,8.80
2019-02-05T19:54:46.083Z,8.27
2019-02-05T19:57:15.415Z,8.33
2019-02-05T19:59:45.183Z,9.40
2019-02-05T20:02:14.495Z,8.73
2019-02-05T20:04:43.866Z,8.77
2019-02-05T20:07:13.576Z,8.03
2019-02-05T20:09:42.917Z,8.70
2019-02-05T20:12:12.238Z,7.93
2019-02-05T20:14:41.956Z,7.27
2019-02-05T20:17:11.383Z,7.10
2019-02-05T20:19:40.774Z,7.40
2019-02-05T20:22:10.229Z,6.70
2019-02-05T20:24:39.585Z,7.43
2019-02-05T20:27:10.253Z,7.00
2019-02-05T20:29:39.666Z,7.27
2019-02-05T20:32:11.428Z,20.00
2019-02-05T20:34:40.771Z,9.13
2019-02-05T20:37:10.147Z,7.73
2019-02-05T20:39:39.499Z,8.30
2019-02-05T20:42:09.742Z,8.70
2019-02-05T20:44:39.149Z,8.50
2019-02-05T20:47:08.790Z,9.57
2019-02-05T20:49:38.132Z,11.10
2019-02-05T20:52:07.598Z,12.10
2019-02-05T20:54:37.074Z,12.93
2019-02-05T20:57:06.401Z,12.20
2019-02-05T20:59:35.781Z,14.50
2019-02-05T21:02:05.206Z,14.43
2019-02-05T21:04:35.503Z,13.07
2019-02-05T21:07:05.417Z,10.83
2019-02-05T21:09:34.773Z,9.80
2019-02-05T21:12:04.291Z,10.70
2019-02-05T21:14:33.665Z,10.20
2019-02-05T21:17:03.083Z,11.23
2019-02-05T21:19:32.780Z,19.53
2019-02-05T21:22:02.386Z,21.33
2019-02-05T21:24:31.990Z,20.47
2019-02-05T21:27:01.880Z,21.67
2019-02-05T21:29:32.711Z,20.13
2019-02-05T21:32:02.020Z,18.43
2019-02-05T21:34:36.175Z,16.23
2019-02-05T21:37:05.625Z,15.60
2019-02-05T21:39:34.929Z,18.73
2019-02-05T21:42:04.439Z,16.53
2019-02-05T21:44:33.805Z,15.93
2019-02-05T21:47:03.131Z,16.20
2019-02-05T21:49:32.741Z,19.37
2019-02-05T21:52:02.072Z,20.03
2019-02-05T21:54:31.435Z,19.27
2019-02-05T21:57:00.760Z,19.97
2019-02-05T21:59:30.095Z,19.93
2019-02-05T22:01:59.775Z,18.30
2019-02-05T22:04:29.145Z,17.73
2019-02-05T22:06:58.624Z,18.50
2019-02-05T22:09:28.168Z,13.40
2019-02-05T22:11:57.555Z,14.53
2019-02-05T22:14:26.970Z,13.23
2019-02-05T22:16:56.338Z,13.30
2019-02-05T22:19:26.875Z,10.80
2019-02-05T22:21:56.279Z,10.03
2019-02-05T22:24:25.662Z,10.90
2019-02-05T22:26:55.085Z,8.80
2019-02-05T22:29:24.397Z,7.33
2019-02-05T22:31:53.787Z,7.70
2019-02-05T22:34:23.897Z,7.80
2019-02-05T22:36:53.232Z,8.37
2019-02-05T22:39:25.164Z,6.40
2019-02-05T22:41:53.949Z,5.67
2019-02-05T22:44:23.325Z,5.97
2019-02-05T22:46:53.043Z,5.37
2019-02-05T22:49:22.388Z,5.60
2019-02-05T22:51:52.004Z,5.70
2019-02-05T22:54:21.351Z,5.83
2019-02-05T22:56:50.860Z,5.87
2019-02-05T22:59:20.482Z,5.40
2019-02-05T23:01:58.713Z,5.97
2019-02-05T23:05:09.189Z,6.30
2019-02-05T23:07:38.522Z,5.30
2019-02-05T23:10:38.719Z,5.63
2019-02-05T23:13:14.791Z,5.50
2019-02-05T23:15:46.662Z,6.40
2019-02-05T23:18:16.196Z,6.40
2019-02-05T23:20:45.632Z,6.33
2019-02-05T23:23:15.027Z,5.80
2019-02-05T23:25:44.475Z,5.77
2019-02-05T23:28:13.931Z,5.83
2019-02-05T23:30:43.793Z,5.60
2019-02-05T23:33:13.456Z,5.47
2019-02-05T23:35:42.868Z,5.53
2019-02-05T23:38:12.307Z,4.90
2019-02-05T23:40:41.714Z,4.67
2019-02-05T23:43:11.088Z,5.27
2019-02-05T23:45:40.418Z,5.33
2019-02-05T23:48:10.071Z,5.60
2019-02-05T23:50:39.432Z,4.90
2019-02-05T23:53:08.833Z,5.40
2019-02-05T23:55:38.172Z,5.90
2019-02-05T23:58:07.525Z,5.17
